Time;durP1;ratioP1;P1;durP2;ratioP2;P2;SDS_P1;SDS_P2;PMS_P1;PMS_P2;Temp;Humidity;BMP_temperature;BMP_pressure;BME280_temperature;BME280_humidity;BME280_pressure;Samples;Min_cycle;Max_cycle;Signal;HPM_P1;HPM_P2
2022/09/26 00:01:06;;;;;;;;;;;;;;;21.59;47.15;100750.09;7283858;19;152533;-57
2022/09/26 00:03:34;;;;;;;;;;;;;;;21.59;46.99;100745.28;7274829;19;152793;-58
2022/09/26 00:06:01;;;;;;;;;;;;;;;21.60;47.07;100732.06;7282566;19;152183;-57
2022/09/26 00:08:49;;;;;;;;;;;;;;;21.59;46.82;100719.16;7281935;19;152560;-57
2022/09/26 00:11:18;;;;;;;;;;;;;;;21.60;47.24;100706.78;7284999;19;153576;-57
2022/09/26 00:13:45;;;;;;;;;;;;;;;21.60;46.61;100706.78;7283297;19;152078;-58
2022/09/26 00:16:14;;;;;;;;;;;;;;;21.60;46.56;100696.34;7285543;19;153171;-58
2022/09/26 00:18:41;;;;;;;;;;;;;;;21.60;46.85;100689.91;7282983;19;153647;-58
2022/09/26 00:21:10;;;;;;;;;;;;;;;21.59;46.78;100683.44;7290902;19;152471;-58
2022/09/26 00:23:37;;;;;;;;;;;;;;;21.59;46.93;100674.19;7282470;19;153213;-58
2022/09/26 00:26:05;;;;;;;;;;;;;;;21.58;46.95;100673.34;7285253;19;152266;-58
2022/09/26 00:28:32;;;;;;;;;;;;;;;21.56;47.28;100656.00;7282994;19;152872;-60
2022/09/26 00:31:06;;;;;;;;;;;;;;;21.56;47.39;100661.59;7283683;19;152768;-58
2022/09/26 00:33:34;;;;;;;;;;;;;;;21.55;47.26;100653.50;7282231;19;152348;-58
2022/09/26 00:36:01;;;;;;;;;;;;;;;21.56;47.31;100641.09;7285039;19;154538;-58
2022/09/26 00:38:28;;;;;;;;;;;;;;;21.54;46.93;100641.41;7282242;19;153121;-58
2022/09/26 00:40:57;;;;;;;;;;;;;;;21.52;47.43;100634.47;7285233;19;152686;-58
2022/09/26 00:43:31;;;;;;;;;;;;;;;21.51;47.20;100636.44;7289905;19;152529;-58
2022/09/26 00:46:13;;;;;;;;;;;;;;;21.49;47.54;100627.50;7285024;19;151991;-57
2022/09/26 00:48:40;;;;;;;;;;;;;;;21.50;47.21;100617.91;7281778;19;152796;-57
2022/09/26 00:51:08;;;;;;;;;;;;;;;21.47;47.24;100606.50;7281611;19;154494;-57
2022/09/26 00:53:38;;;;;;;;;;;;;;;21.47;47.74;100596.06;7280458;19;152030;-57
2022/09/26 00:56:08;;;;;;;;;;;;;;;21.45;47.80;100598.38;7285222;19;153396;-57
2022/09/26 00:58:41;;;;;;;;;;;;;;;21.44;47.74;100590.28;7281176;19;153307;-57
2022/09/26 01:01:08;;;;;;;;;;;;;;;21.45;47.81;100584.31;7282359;19;152383;-57
2022/09/26 01:03:38;;;;;;;;;;;;;;;21.42;47.74;100584.97;7280979;19;152721;-57
2022/09/26 01:06:05;;;;;;;;;;;;;;;21.40;48.09;100564.78;7285604;19;155856;-57
2022/09/26 01:08:37;;;;;;;;;;;;;;;21.42;48.12;100565.28;7283257;19;153491;-57
2022/09/26 01:11:09;;;;;;;;;;;;;;;21.42;47.74;100556.03;7281275;19;152749;-58
2022/09/26 01:13:42;;;;;;;;;;;;;;;21.42;47.78;100556.88;7280836;19;152190;-57
2022/09/26 01:16:09;;;;;;;;;;;;;;;21.39;47.83;100551.91;7283343;19;152532;-57
2022/09/26 01:18:36;;;;;;;;;;;;;;;21.41;48.05;100546.78;7281822;19;152812;-58
2022/09/26 01:21:12;;;;;;;;;;;;;;;21.42;48.27;100542.81;7282242;19;152589;-58
2022/09/26 01:23:49;;;;;;;;;;;;;;;21.41;47.68;100537.50;7280903;19;152703;-58
2022/09/26 01:26:28;;;;;;;;;;;;;;;21.41;47.77;100520.63;7284025;19;154142;-58
2022/09/26 01:29:13;;;;;;;;;;;;;;;21.38;47.76;100513.69;7288770;19;152645;-58
2022/09/26 01:34:49;;;;;;;;;;;;;;;21.37;47.85;100497.16;7278488;19;152441;-58
2022/09/26 01:37:24;;;;;;;;;;;;;;;21.38;47.91;100488.41;7283590;19;153484;-58
2022/09/26 01:39:57;;;;;;;;;;;;;;;21.35;47.99;100480.59;7280784;19;153710;-58
2022/09/26 01:42:30;;;;;;;;;;;;;;;21.35;47.82;100472.19;7282399;19;151449;-57
2022/09/26 01:45:03;;;;;;;;;;;;;;;21.33;47.73;100460.44;7282149;19;152894;-57
2022/09/26 01:47:36;;;;;;;;;;;;;;;21.33;48.25;100457.63;7278592;19;152856;-57
2022/09/26 01:50:18;;;;;;;;;;;;;;;21.30;47.98;100444.25;7281774;19;152474;-57
2022/09/26 01:52:58;;;;;;;;;;;;;;;21.29;47.94;100443.41;7289990;19;153429;-57
2022/09/26 01:55:36;;;;;;;;;;;;;;;21.29;48.30;100434.16;7279733;19;153672;-57
2022/09/26 01:58:12;;;;;;;;;;;;;;;21.27;48.21;100420.44;7282440;19;152761;-58
2022/09/26 02:00:48;;;;;;;;;;;;;;;21.24;48.02;100409.84;7278144;19;153458;-57
2022/09/26 02:03:21;;;;;;;;;;;;;;;21.26;48.02;100406.69;7279687;19;152241;-57
2022/09/26 02:05:48;;;;;;;;;;;;;;;21.24;48.28;100393.00;7277849;19;152264;-59
2022/09/26 02:08:18;;;;;;;;;;;;;;;21.23;48.09;100391.31;7278050;19;154099;-58
2022/09/26 02:10:59;;;;;;;;;;;;;;;21.23;48.31;100391.31;7279667;19;152285;-59
2022/09/26 02:13:30;;;;;;;;;;;;;;;21.22;48.27;100386.03;7279740;19;153529;-58
2022/09/26 02:16:00;;;;;;;;;;;;;;;21.21;48.25;100385.19;7285749;19;153364;-58
2022/09/26 02:18:30;;;;;;;;;;;;;;;21.19;48.34;100375.44;7280690;19;152905;-58
2022/09/26 02:21:00;;;;;;;;;;;;;;;21.19;48.27;100372.66;7280385;19;152824;-58
2022/09/26 02:23:27;;;;;;;;;;;;;;;21.16;48.22;100354.47;7281340;19;152533;-58
2022/09/26 02:25:54;;;;;;;;;;;;;;;21.16;48.67;100354.47;7281802;19;153459;-58
2022/09/26 02:28:22;;;;;;;;;;;;;;;21.14;48.70;100353.97;7279682;19;153806;-58
2022/09/26 02:30:52;;;;;;;;;;;;;;;21.15;48.45;100351.97;7279659;19;152062;-58
2022/09/26 02:33:19;;;;;;;;;;;;;;;21.13;48.84;100352.28;7278823;19;153540;-58
2022/09/26 02:35:56;;;;;;;;;;;;;;;21.12;48.68;100336.56;7287757;19;154699;-58
2022/09/26 02:38:25;;;;;;;;;;;;;;;21.11;48.69;100339.72;7280567;19;152689;-58
2022/09/26 02:40:58;;;;;;;;;;;;;;;21.09;48.91;100320.38;7280762;19;154469;-58
2022/09/26 02:43:29;;;;;;;;;;;;;;;21.08;49.04;100318.72;7279709;19;152336;-58
2022/09/26 02:46:04;;;;;;;;;;;;;;;21.08;48.65;100309.44;7277943;19;151947;-58
2022/09/26 02:48:37;;;;;;;;;;;;;;;21.06;48.94;100300.53;7277055;19;152752;-58
2022/09/26 02:51:09;;;;;;;;;;;;;;;21.03;49.22;100293.56;7282475;19;152029;-58
2022/09/26 02:53:55;;;;;;;;;;;;;;;21.02;49.25;100291.94;7277850;19;153444;-58
2022/09/26 02:56:40;;;;;;;;;;;;;;;21.02;49.19;100277.91;7280433;19;154405;-58
2022/09/26 02:59:21;;;;;;;;;;;;;;;21.00;49.13;100274.59;7285701;19;153105;-58
2022/09/26 03:01:48;;;;;;;;;;;;;;;21.00;49.32;100265.31;7277873;19;154694;-58
2022/09/26 03:04:50;;;;;;;;;;;;;;;21.01;49.20;100258.56;7277596;19;152547;-58
2022/09/26 03:07:28;;;;;;;;;;;;;;;21.00;49.77;100248.47;7271635;19;153475;-58
2022/09/26 03:09:56;;;;;;;;;;;;;;;20.98;49.71;100233.94;7277311;19;153701;-58
2022/09/26 03:12:24;;;;;;;;;;;;;;;20.95;49.66;100223.34;7279769;19;152138;-58
2022/09/26 03:14:52;;;;;;;;;;;;;;;20.96;49.78;100217.41;7282285;19;155326;-58
2022/09/26 03:17:27;;;;;;;;;;;;;;;20.94;49.53;100204.88;7285660;19;153715;-58
2022/09/26 03:20:05;;;;;;;;;;;;;;;20.93;49.81;100209.66;7286957;19;152595;-58
2022/09/26 03:22:33;;;;;;;;;;;;;;;20.92;49.80;100195.94;7292630;19;153409;-58
2022/09/26 03:25:00;;;;;;;;;;;;;;;20.92;50.11;100190.31;7285948;19;153124;-58
2022/09/26 03:27:28;;;;;;;;;;;;;;;20.91;50.12;100191.47;7285019;19;153382;-58
2022/09/26 03:29:55;;;;;;;;;;;;;;;20.90;50.22;100175.78;7284913;19;154307;-58
2022/09/26 03:32:22;;;;;;;;;;;;;;;20.88;50.15;100161.25;7285027;19;152626;-58
2022/09/26 03:34:50;;;;;;;;;;;;;;;20.88;50.20;100166.88;7283726;19;153508;-58
2022/09/26 03:37:16;;;;;;;;;;;;;;;20.86;50.61;100155.97;7284637;19;152732;-58
2022/09/26 03:39:44;;;;;;;;;;;;;;;20.86;50.76;100147.53;7285132;19;152702;-58
2022/09/26 03:42:13;;;;;;;;;;;;;;;20.85;50.99;100157.09;7286238;19;152860;-58
2022/09/26 03:44:42;;;;;;;;;;;;;;;20.83;50.80;100142.59;7291668;19;153865;-58
2022/09/26 03:47:09;;;;;;;;;;;;;;;20.82;51.30;100133.34;7283284;19;155179;-58
2022/09/26 03:49:37;;;;;;;;;;;;;;;20.83;51.05;100136.97;7283424;19;152804;-58
2022/09/26 03:52:06;;;;;;;;;;;;;;;20.81;51.67;100133.66;7286127;19;152381;-58
2022/09/26 03:54:33;;;;;;;;;;;;;;;20.80;51.42;100127.22;7280825;19;154043;-58
2022/09/26 03:57:00;;;;;;;;;;;;;;;20.79;51.47;100134.00;7284415;19;153431;-58
2022/09/26 03:59:27;;;;;;;;;;;;;;;20.80;51.78;100121.59;7280722;19;153671;-58
2022/09/26 04:01:54;;;;;;;;;;;;;;;20.79;51.87;100116.34;7285928;19;153285;-58
2022/09/26 04:04:21;;;;;;;;;;;;;;;20.76;52.38;100103.78;7282132;19;153200;-58
2022/09/26 04:06:50;;;;;;;;;;;;;;;20.75;51.97;100102.16;7293027;19;152267;-58
2022/09/26 04:09:17;;;;;;;;;;;;;;;20.75;52.49;100099.34;7278885;19;153184;-58
2022/09/26 04:11:45;;;;;;;;;;;;;;;20.76;52.61;100092.53;7285964;19;151979;-58
2022/09/26 04:14:12;;;;;;;;;;;;;;;20.75;52.43;100085.31;7283113;19;153048;-58
2022/09/26 04:16:39;;;;;;;;;;;;;;;20.75;52.70;100085.31;7284301;19;154140;-58
2022/09/26 04:19:06;;;;;;;;;;;;;;;20.73;53.02;100081.97;7282524;19;153540;-58
2022/09/26 04:21:36;;;;;;;;;;;;;;;20.72;52.86;100068.28;7285863;19;152940;-58
2022/09/26 04:24:12;;;;;;;;;;;;;;;20.72;53.25;100065.47;7282468;19;152551;-58
2022/09/26 04:26:40;;;;;;;;;;;;;;;20.71;52.96;100056.25;7293807;19;152084;-59
2022/09/26 04:29:08;;;;;;;;;;;;;;;20.72;53.23;100062.66;7282296;19;153490;-58
2022/09/26 04:31:35;;;;;;;;;;;;;;;20.71;53.25;100050.63;7285426;19;154934;-59
2022/09/26 04:34:03;;;;;;;;;;;;;;;20.71;53.01;100041.38;7282151;19;152932;-58
2022/09/26 04:36:31;;;;;;;;;;;;;;;20.69;53.55;100030.47;7284316;19;153210;-58
2022/09/26 04:38:59;;;;;;;;;;;;;;;20.68;53.52;100025.19;7283035;19;152744;-58
2022/09/26 04:41:27;;;;;;;;;;;;;;;20.68;53.53;100022.38;7285778;19;152420;-58
2022/09/26 04:43:54;;;;;;;;;;;;;;;20.67;53.65;100013.13;7281023;19;154116;-58
2022/09/26 04:46:22;;;;;;;;;;;;;;;20.66;53.96;99997.47;7285868;19;152157;-58
2022/09/26 04:48:56;;;;;;;;;;;;;;;20.65;53.90;99990.19;7288516;19;153036;-58
2022/09/26 04:51:23;;;;;;;;;;;;;;;20.66;53.92;99979.78;7284768;19;151851;-58
2022/09/26 04:53:50;;;;;;;;;;;;;;;20.64;54.26;99974.50;7282722;19;153123;-58
2022/09/26 04:56:19;;;;;;;;;;;;;;;20.64;54.50;99971.69;7283175;19;155128;-58
2022/09/26 04:58:46;;;;;;;;;;;;;;;20.63;54.05;99970.03;7283245;19;152665;-58
2022/09/26 05:01:14;;;;;;;;;;;;;;;20.63;54.52;99956.00;7281915;19;152202;-58
2022/09/26 05:03:42;;;;;;;;;;;;;;;20.63;54.43;99953.19;7282633;19;153612;-58
2022/09/26 05:06:09;;;;;;;;;;;;;;;20.61;54.70;99944.31;7283204;19;153954;-58
2022/09/26 05:08:38;;;;;;;;;;;;;;;20.60;54.73;99925.81;7282330;19;152601;-58
2022/09/26 05:11:05;;;;;;;;;;;;;;;20.60;54.55;99897.75;7290259;19;153773;-58
2022/09/26 05:13:32;;;;;;;;;;;;;;;20.60;54.78;99903.34;7280867;19;153363;-58
2022/09/26 05:16:00;;;;;;;;;;;;;;;20.60;54.85;99886.53;7279961;19;153446;-58
2022/09/26 05:18:27;;;;;;;;;;;;;;;20.60;54.74;99888.50;7283480;19;152021;-58
2022/09/26 05:20:55;;;;;;;;;;;;;;;20.58;54.58;99879.59;7283430;19;152283;-58
2022/09/26 05:26:20;;;;;;;;;;;;;;;20.61;55.01;99888.19;7284369;19;153016;-58
2022/09/26 05:28:48;;;;;;;;;;;;;;;20.66;55.79;99885.19;7282415;19;153591;-58
2022/09/26 05:31:16;;;;;;;;;;;;;;;20.69;56.08;99890.13;7283406;19;154586;-58
2022/09/26 05:33:45;;;;;;;;;;;;;;;20.71;55.68;99890.63;7288930;19;152155;-58
2022/09/26 05:36:12;;;;;;;;;;;;;;;20.75;55.59;99876.72;7278127;19;153588;-58
2022/09/26 05:38:39;;;;;;;;;;;;;;;20.77;56.12;99878.03;7281165;19;152645;-58
2022/09/26 05:41:06;;;;;;;;;;;;;;;20.81;56.36;99876.19;7284180;19;152360;-58
2022/09/26 05:43:33;;;;;;;;;;;;;;;20.86;56.17;99875.19;7279803;19;154032;-58
2022/09/26 05:46:05;;;;;;;;;;;;;;;20.91;56.78;99863.78;7283551;19;152420;-58
2022/09/26 05:48:32;;;;;;;;;;;;;;;20.95;56.71;99873.16;7281273;19;152971;-58
2022/09/26 05:51:07;;;;;;;;;;;;;;;21.00;56.69;99870.16;7281989;19;153355;-58
2022/09/26 05:53:34;;;;;;;;;;;;;;;21.05;56.39;99860.72;7280709;19;152132;-58
2022/09/26 05:56:01;;;;;;;;;;;;;;;21.10;56.69;99849.31;7286654;19;152906;-59
2022/09/26 05:58:33;;;;;;;;;;;;;;;21.14;56.48;99845.50;7280984;19;152419;-58
2022/09/26 06:01:07;;;;;;;;;;;;;;;21.18;56.27;99838.06;7280809;19;152849;-58
2022/09/26 06:03:35;;;;;;;;;;;;;;;21.22;56.32;99836.22;7280722;19;153482;-58
2022/09/26 06:06:03;;;;;;;;;;;;;;;21.26;56.32;99831.53;7282930;19;152295;-58
2022/09/26 06:08:30;;;;;;;;;;;;;;;21.29;56.15;99828.06;7282273;19;153348;-58
2022/09/26 06:11:02;;;;;;;;;;;;;;;21.33;56.22;99821.75;7280905;19;153842;-58
2022/09/26 06:13:29;;;;;;;;;;;;;;;21.36;55.89;99819.09;7281296;19;151800;-58
2022/09/26 06:15:59;;;;;;;;;;;;;;;21.40;55.93;99820.03;7279428;19;152784;-58
2022/09/26 06:18:27;;;;;;;;;;;;;;;21.43;55.81;99813.75;7287357;19;152764;-58
2022/09/26 06:20:54;;;;;;;;;;;;;;;21.45;56.13;99808.59;7282218;19;153686;-58
2022/09/26 06:23:21;;;;;;;;;;;;;;;21.48;55.59;99807.13;7279821;19;153339;-58
2022/09/26 06:25:48;;;;;;;;;;;;;;;21.49;55.79;99806.75;7281180;19;152108;-58
2022/09/26 06:28:16;;;;;;;;;;;;;;;21.53;55.50;99806.91;7281627;19;153274;-58
2022/09/26 06:30:44;;;;;;;;;;;;;;;21.55;55.46;99811.00;7280064;19;153625;-58
2022/09/26 06:33:11;;;;;;;;;;;;;;;21.57;55.91;99796.63;7281177;19;152412;-58
2022/09/26 06:35:38;;;;;;;;;;;;;;;21.60;55.75;99810.81;7279367;19;152685;-58
2022/09/26 06:38:05;;;;;;;;;;;;;;;21.62;55.53;99799.22;7288247;19;152584;-58
2022/09/26 06:40:32;;;;;;;;;;;;;;;21.65;55.58;99813.41;7280202;19;153604;-59
2022/09/26 06:42:59;;;;;;;;;;;;;;;21.66;55.53;99803.81;7280735;19;153142;-59
2022/09/26 06:45:26;;;;;;;;;;;;;;;21.68;55.29;99800.66;7280009;19;152598;-59
2022/09/26 06:47:54;;;;;;;;;;;;;;;21.69;55.05;99810.72;7281328;19;153599;-58
2022/09/26 06:50:21;;;;;;;;;;;;;;;21.69;55.66;99817.19;7283263;19;153427;-58
2022/09/26 06:52:48;;;;;;;;;;;;;;;21.71;55.49;99819.66;7288091;19;152414;-58
2022/09/26 06:55:15;;;;;;;;;;;;;;;21.72;55.47;99821.28;7285292;19;152392;-58
2022/09/26 06:57:42;;;;;;;;;;;;;;;21.71;55.45;99812.03;7286517;19;154169;-58
2022/09/26 07:00:11;;;;;;;;;;;;;;;21.72;55.62;99810.84;7293804;19;151942;-59
2022/09/26 07:02:47;;;;;;;;;;;;;;;21.72;55.32;99822.09;7285553;19;153763;-59
2022/09/26 07:05:14;;;;;;;;;;;;;;;21.73;55.68;99820.94;7287768;19;151884;-59
2022/09/26 07:07:44;;;;;;;;;;;;;;;21.73;55.31;99820.94;7286357;19;152616;-59
2022/09/26 07:10:12;;;;;;;;;;;;;;;21.74;55.68;99807.72;7285370;19;153279;-58
2022/09/26 07:12:43;;;;;;;;;;;;;;;21.74;55.48;99802.09;7286848;19;153517;-59
2022/09/26 07:15:12;;;;;;;;;;;;;;;21.74;55.26;99804.91;7286467;19;152390;-59
2022/09/26 07:17:40;;;;;;;;;;;;;;;21.74;55.89;99805.72;7283668;19;153169;-59
2022/09/26 07:20:08;;;;;;;;;;;;;;;21.77;55.40;99811.81;7286101;19;152536;-59
2022/09/26 07:22:35;;;;;;;;;;;;;;;21.77;55.36;99814.63;7293149;19;153767;-59
2022/09/26 07:25:04;;;;;;;;;;;;;;;21.77;56.02;99814.63;7284013;19;153052;-58
2022/09/26 07:27:35;;;;;;;;;;;;;;;21.79;55.60;99806.69;7286299;19;152306;-58
2022/09/26 07:30:03;;;;;;;;;;;;;;;21.79;55.64;99815.13;7285135;19;153238;-58
2022/09/26 07:32:30;;;;;;;;;;;;;;;21.77;56.21;99809.81;7286288;19;154020;-59
2022/09/26 07:35:06;;;;;;;;;;;;;;;21.79;55.93;99813.13;7286597;19;153321;-58
2022/09/26 07:37:33;;;;;;;;;;;;;;;21.80;56.22;99819.59;7286441;19;154084;-58
2022/09/26 07:40:00;;;;;;;;;;;;;;;21.76;56.38;99822.22;7285335;19;152306;-59
2022/09/26 07:42:27;;;;;;;;;;;;;;;21.75;56.27;99809.38;7286764;19;153340;-58
2022/09/26 07:44:56;;;;;;;;;;;;;;;21.78;55.70;99819.09;7291813;19;152410;-58
2022/09/26 07:50:30;;;;;;;;;;;;;;;21.82;55.97;99808.78;7284012;19;153664;-58
2022/09/26 07:52:57;;;;;;;;;;;;;;;21.76;55.73;99793.31;7287440;19;152521;-58
2022/09/26 07:55:25;;;;;;;;;;;;;;;21.73;56.21;99786.38;7285029;19;153643;-58
2022/09/26 07:57:52;;;;;;;;;;;;;;;21.74;56.25;99805.72;7285331;19;154334;-58
2022/09/26 08:00:20;;;;;;;;;;;;;;;21.73;56.02;99820.13;7283204;19;152928;-58
2022/09/26 08:02:47;;;;;;;;;;;;;;;21.71;55.96;99822.47;7284165;19;154192;-58
2022/09/26 08:05:20;;;;;;;;;;;;;;;21.69;56.03;99814.38;7282479;19;154875;-58
2022/09/26 08:07:48;;;;;;;;;;;;;;;21.69;55.77;99808.75;7291143;19;152327;-58
2022/09/26 08:10:19;;;;;;;;;;;;;;;21.69;55.79;99816.34;7281607;19;153942;-58
2022/09/26 08:12:47;;;;;;;;;;;;;;;21.70;55.94;99809.56;7283956;19;151913;-59
2022/09/26 08:15:14;;;;;;;;;;;;;;;21.72;56.33;99810.03;7282150;19;152488;-57
2022/09/26 08:17:42;;;;;;;;;;;;;;;21.54;55.42;99812.16;7281180;19;153570;-57
2022/09/26 08:20:09;;;;;;;;;;;;;;;21.37;52.92;99815.13;7259913;19;153813;-57
2022/09/26 08:22:36;;;;;;;;;;;;;;;21.28;52.62;99818.00;7278691;19;153867;-57
2022/09/26 08:25:05;;;;;;;;;;;;;;;21.18;51.66;99824.00;7280147;19;154315;-57
2022/09/26 08:27:32;;;;;;;;;;;;;;;21.12;51.90;99830.94;7283598;19;152161;-57
2022/09/26 08:29:59;;;;;;;;;;;;;;;21.12;51.61;99821.72;7287818;19;153095;-56
2022/09/26 08:32:26;;;;;;;;;;;;;;;21.05;51.82;99827.84;7280275;19;152491;-57
2022/09/26 08:35:03;;;;;;;;;;;;;;;20.95;52.19;99816.19;7280639;19;154005;-57
2022/09/26 08:37:31;;;;;;;;;;;;;;;20.88;51.96;99827.97;7278582;19;154166;-57
2022/09/26 08:39:59;;;;;;;;;;;;;;;20.84;51.63;99830.63;7280651;19;152528;-57
2022/09/26 08:42:27;;;;;;;;;;;;;;;20.75;51.65;99821.41;7282511;19;152720;-57
2022/09/26 08:48:05;;;;;;;;;;;;;;;20.59;52.66;99819.50;7281728;19;155254;-57
2022/09/26 08:50:49;;;;;;;;;;;;;;;20.55;52.36;99812.91;7285259;19;152993;-57
2022/09/26 08:53:21;;;;;;;;;;;;;;;20.52;52.67;99819.19;7280363;19;152714;-57
2022/09/26 08:55:49;;;;;;;;;;;;;;;20.43;52.49;99819.25;7281089;19;153244;-57
2022/09/26 08:58:21;;;;;;;;;;;;;;;20.41;52.57;99816.75;7279121;19;155078;-57
2022/09/26 09:01:10;;;;;;;;;;;;;;;20.35;52.35;99834.91;7126424;19;2986022;-57
2022/09/26 09:03:39;;;;;;;;;;;;;;;20.35;52.81;99825.72;7282755;19;152619;-57
2022/09/26 09:06:10;;;;;;;;;;;;;;;20.30;53.72;99825.88;7280427;19;153097;-59
2022/09/26 09:08:42;;;;;;;;;;;;;;;20.38;53.48;99828.66;7231144;19;155727;-57
2022/09/26 09:11:33;;;;;;;;;;;;;;;20.45;53.61;99846.94;7268706;19;152333;-57
2022/09/26 09:14:23;;;;;;;;;;;;;;;20.47;54.00;99850.25;7284907;19;152869;-57
2022/09/26 09:17:06;;;;;;;;;;;;;;;20.49;54.08;99845.13;7278257;19;153024;-57
2022/09/26 09:20:03;;;;;;;;;;;;;;;20.53;54.28;99829.28;7271875;19;153988;-56
2022/09/26 09:22:46;;;;;;;;;;;;;;;20.55;54.37;99839.00;7276022;19;153469;-56
2022/09/26 09:25:44;;;;;;;;;;;;;;;20.60;54.86;99847.22;7278726;19;152315;-56
2022/09/26 09:28:36;;;;;;;;;;;;;;;20.66;54.78;99837.47;7277827;19;152625;-57
2022/09/26 09:31:12;;;;;;;;;;;;;;;20.69;54.94;99841.56;7278502;19;152108;-56
2022/09/26 09:33:45;;;;;;;;;;;;;;;20.72;54.50;99846.50;7279474;19;152082;-57
2022/09/26 09:36:20;;;;;;;;;;;;;;;20.75;54.36;99840.25;7277328;19;154527;-56
2022/09/26 09:38:49;;;;;;;;;;;;;;;20.75;54.18;99835.47;7286924;19;152393;-57
2022/09/26 09:41:20;;;;;;;;;;;;;;;20.79;54.40;99852.44;7277913;19;153035;-57
2022/09/26 09:43:55;;;;;;;;;;;;;;;20.81;53.86;99859.34;7277689;19;152943;-56
2022/09/26 09:46:28;;;;;;;;;;;;;;;20.84;53.81;99835.41;7279961;19;153802;-57
2022/09/26 09:49:01;;;;;;;;;;;;;;;20.87;53.85;99829.13;7276628;19;153530;-57
2022/09/26 09:51:30;;;;;;;;;;;;;;;20.88;53.78;99838.38;7277994;19;152710;-57
2022/09/26 09:54:13;;;;;;;;;;;;;;;20.92;53.41;99842.13;7276436;19;154070;-57
2022/09/26 09:56:41;;;;;;;;;;;;;;;20.94;53.66;99849.03;7277452;19;155134;-57
2022/09/26 09:59:08;;;;;;;;;;;;;;;20.96;53.24;99838.31;7281155;19;152401;-56
2022/09/26 10:01:40;;;;;;;;;;;;;;;20.99;53.23;99836.81;7282488;19;152348;-57
2022/09/26 10:04:07;;;;;;;;;;;;;;;21.02;53.14;99824.91;7279017;19;152596;-57
2022/09/26 10:06:34;;;;;;;;;;;;;;;21.05;52.74;99829.84;7283278;19;152728;-57
2022/09/26 10:09:17;;;;;;;;;;;;;;;21.08;52.27;99826.34;7276856;19;154985;-56
2022/09/26 10:12:09;;;;;;;;;;;;;;;21.08;52.93;99817.91;7282380;19;152132;-57
2022/09/26 10:14:41;;;;;;;;;;;;;;;21.12;52.50;99827.34;7280925;19;152742;-57
2022/09/26 10:17:08;;;;;;;;;;;;;;;21.12;52.58;99828.13;7279525;19;153561;-57
2022/09/26 10:19:38;;;;;;;;;;;;;;;21.13;52.59;99826.19;7280327;19;152769;-57
2022/09/26 10:22:10;;;;;;;;;;;;;;;21.16;52.09;99822.72;7276581;19;152327;-57
2022/09/26 10:24:39;;;;;;;;;;;;;;;21.17;52.19;99818.72;7280806;19;152629;-56
2022/09/26 10:27:17;;;;;;;;;;;;;;;21.20;52.24;99815.25;7280196;19;153484;-57
2022/09/26 10:29:46;;;;;;;;;;;;;;;21.20;52.27;99818.88;7277830;19;152573;-57
2022/09/26 10:32:16;;;;;;;;;;;;;;;21.25;52.06;99815.06;7280539;19;153619;-57
2022/09/26 10:35:03;;;;;;;;;;;;;;;21.24;52.01;99810.59;7280677;19;153356;-57
2022/09/26 10:37:35;;;;;;;;;;;;;;;21.23;51.74;99811.75;7277880;19;152876;-57
2022/09/26 10:40:46;;;;;;;;;;;;;;;21.22;51.62;99813.72;7277704;19;152418;-57
2022/09/26 10:43:13;;;;;;;;;;;;;;;21.22;51.73;99824.13;7280003;19;153782;-57
2022/09/26 10:45:40;;;;;;;;;;;;;;;21.21;51.46;99817.69;7276625;19;153511;-57
2022/09/26 10:48:07;;;;;;;;;;;;;;;21.22;51.77;99827.78;7287610;19;152691;-57
2022/09/26 10:50:34;;;;;;;;;;;;;;;21.21;51.50;99826.13;7279363;19;153271;-56
2022/09/26 10:53:07;;;;;;;;;;;;;;;21.22;51.70;99819.34;7281154;19;151940;-55
2022/09/26 10:55:39;;;;;;;;;;;;;;;21.27;51.27;99823.94;7278815;19;152850;-56
2022/09/26 10:58:08;;;;;;;;;;;;;;;21.28;51.30;99820.81;7274645;19;152390;-56
2022/09/26 11:00:41;;;;;;;;;;;;;;;21.26;51.24;99816.66;7278751;19;151906;-56
2022/09/26 11:03:10;;;;;;;;;;;;;;;21.27;51.39;99812.72;7279406;19;152860;-56
2022/09/26 11:08:15;;;;;;;;;;;;;;;21.25;51.43;99815.06;7287247;19;151856;-56
2022/09/26 11:10:44;;;;;;;;;;;;;;;21.24;51.48;99819.84;7277189;19;154462;-56
2022/09/26 11:13:16;;;;;;;;;;;;;;;21.23;51.60;99821.00;7277982;19;151886;-56
2022/09/26 11:15:53;;;;;;;;;;;;;;;21.24;51.55;99824.63;7278962;19;153638;-56
2022/09/26 11:18:26;;;;;;;;;;;;;;;21.23;51.40;99826.63;7274362;19;153972;-56
2022/09/26 11:20:56;;;;;;;;;;;;;;;21.22;51.58;99830.59;7281083;19;152462;-56
2022/09/26 11:23:33;;;;;;;;;;;;;;;21.21;51.23;99828.94;7275620;19;153581;-56
2022/09/26 11:26:11;;;;;;;;;;;;;;;21.19;51.33;99831.28;7275295;19;156464;-56
2022/09/26 11:28:42;;;;;;;;;;;;;;;21.17;51.67;99836.41;7278356;19;152472;-56
2022/09/26 11:31:17;;;;;;;;;;;;;;;21.18;51.53;99834.41;7286439;19;153334;-56
2022/09/26 11:33:44;;;;;;;;;;;;;;;21.18;51.27;99838.06;7277063;19;153574;-56
2022/09/26 11:36:21;;;;;;;;;;;;;;;21.21;51.46;99836.56;7285589;19;152722;-56
2022/09/26 11:38:54;;;;;;;;;;;;;;;21.24;51.04;99836.69;7281102;19;154309;-56
2022/09/26 11:44:20;;;;;;;;;;;;;;;21.22;51.04;99841.00;7282908;19;153346;-56
2022/09/26 11:46:57;;;;;;;;;;;;;;;21.20;51.25;99848.97;7285180;19;153253;-56
2022/09/26 11:49:33;;;;;;;;;;;;;;;21.18;51.21;99838.06;7284332;19;151817;-56
2022/09/26 11:52:00;;;;;;;;;;;;;;;21.16;51.44;99837.59;7286900;19;152900;-56
2022/09/26 11:54:32;;;;;;;;;;;;;;;21.15;51.53;99841.56;7290959;19;154427;-56
2022/09/26 11:57:02;;;;;;;;;;;;;;;21.14;51.31;99842.69;7283900;19;154442;-56
2022/09/26 11:59:39;;;;;;;;;;;;;;;21.14;51.32;99855.91;7281423;19;154531;-56
2022/09/26 12:02:14;;;;;;;;;;;;;;;21.11;51.36;99851.78;7283294;19;153453;-56
2022/09/26 12:04:51;;;;;;;;;;;;;;;21.10;51.51;99861.38;7284549;19;153408;-56
2022/09/26 12:07:33;;;;;;;;;;;;;;;21.10;51.59;99869.78;7283175;19;152401;-56
2022/09/26 12:10:10;;;;;;;;;;;;;;;21.10;51.33;99877.41;7283436;19;152428;-56
2022/09/26 12:12:47;;;;;;;;;;;;;;;21.07;51.45;99884.53;7285990;19;153058;-56
2022/09/26 12:15:22;;;;;;;;;;;;;;;21.06;51.69;99888.50;7283223;19;154596;-56
2022/09/26 12:17:49;;;;;;;;;;;;;;;21.05;51.50;99895.25;7291523;19;152087;-56
2022/09/26 12:20:18;;;;;;;;;;;;;;;21.04;51.45;99896.41;7279832;19;153341;-55
2022/09/26 12:22:49;;;;;;;;;;;;;;;21.05;51.44;99889.66;7284969;19;153476;-57
2022/09/26 12:25:25;;;;;;;;;;;;;;;21.05;51.64;99897.25;7276437;19;152834;-55
2022/09/26 12:27:52;;;;;;;;;;;;;;;21.04;51.29;99893.59;7284708;19;153477;-57
2022/09/26 12:30:23;;;;;;;;;;;;;;;21.05;51.61;99900.06;7283231;19;152971;-57
2022/09/26 12:32:51;;;;;;;;;;;;;;;21.05;51.43;99900.06;7244218;19;156085;-57
2022/09/26 12:35:27;;;;;;;;;;;;;;;21.05;51.50;99886.00;7262103;19;153467;-58
2022/09/26 12:38:05;;;;;;;;;;;;;;;21.05;51.52;99883.19;7282705;19;152859;-57
2022/09/26 12:40:38;;;;;;;;;;;;;;;21.09;51.35;99882.19;7283590;19;153976;-57
2022/09/26 12:43:15;;;;;;;;;;;;;;;21.11;51.66;99877.06;7281130;19;151857;-57
2022/09/26 12:45:53;;;;;;;;;;;;;;;21.09;51.57;99884.16;7281330;19;152587;-56
2022/09/26 12:48:33;;;;;;;;;;;;;;;21.07;51.43;99876.09;7277806;19;155417;-57
2022/09/26 12:51:09;;;;;;;;;;;;;;;21.07;51.42;99889.31;7277020;19;152320;-57
2022/09/26 12:53:43;;;;;;;;;;;;;;;21.05;51.74;99892.44;7277027;19;152733;-58
2022/09/26 12:56:11;;;;;;;;;;;;;;;21.04;51.72;99879.56;7266998;19;153413;-56
2022/09/26 12:58:38;;;;;;;;;;;;;;;21.03;51.65;99891.16;7258039;19;153832;-58
2022/09/26 13:01:15;;;;;;;;;;;;;;;21.01;51.79;99890.66;7271665;19;153530;-57
2022/09/26 13:03:45;;;;;;;;;;;;;;;20.99;51.46;99893.78;7283022;19;152359;-57
2022/09/26 13:06:16;;;;;;;;;;;;;;;20.99;51.87;99887.34;7278155;19;153080;-57
2022/09/26 13:08:44;;;;;;;;;;;;;;;20.98;51.36;99875.31;7264402;19;153348;-57
2022/09/26 13:11:18;;;;;;;;;;;;;;;20.97;51.85;99884.91;7272166;19;153697;-57